sensor_id;sensor_type;location;lat;lon;timestamp;pressure;altitude;pressure_sealevel;temperature;humidity
52957;BME280;38819;42.692;23.342;2022-12-08T00:01:27;95134.28;;;6.22;73.70
52957;BME280;38819;42.692;23.342;2022-12-08T00:03:53;95138.03;;;6.31;74.22
52957;BME280;38819;42.692;23.342;2022-12-08T00:06:22;95153.03;;;6.22;74.26
52957;BME280;38819;42.692;23.342;2022-12-08T00:09:10;95143.38;;;6.26;74.92
52957;BME280;38819;42.692;23.342;2022-12-08T00:11:50;95151.41;;;6.16;74.70
52957;BME280;38819;42.692;23.342;2022-12-08T00:14:15;95162.94;;;6.11;74.61
52957;BME280;38819;42.692;23.342;2022-12-08T00:16:40;95153.81;;;6.02;75.10
52957;BME280;38819;42.692;23.342;2022-12-08T00:19:05;95162.94;;;6.11;75.49
52957;BME280;38819;42.692;23.342;2022-12-08T00:21:31;95157.56;;;6.06;76.42
52957;BME280;38819;42.692;23.342;2022-12-08T00:23:56;95166.44;;;6.11;75.14
52957;BME280;38819;42.692;23.342;2022-12-08T00:26:22;95171.81;;;6.17;74.48
52957;BME280;38819;42.692;23.342;2022-12-08T00:28:47;95167.25;;;6.12;74.32
52957;BME280;38819;42.692;23.342;2022-12-08T00:31:12;95165.34;;;6.12;73.62
52957;BME280;38819;42.692;23.342;2022-12-08T00:33:38;95161.34;;;6.15;73.27
52957;BME280;38819;42.692;23.342;2022-12-08T00:36:07;95161.06;;;6.11;73.12
52957;BME280;38819;42.692;23.342;2022-12-08T00:38:32;95172.59;;;6.12;73.18
52957;BME280;38819;42.692;23.342;2022-12-08T00:40:58;95177.97;;;6.17;72.91
52957;BME280;38819;42.692;23.342;2022-12-08T00:43:23;95182.53;;;6.11;73.38
52957;BME280;38819;42.692;23.342;2022-12-08T00:45:48;95187.91;;;6.22;73.36
52957;BME280;38819;42.692;23.342;2022-12-08T00:48:14;95187.63;;;6.18;73.17
52957;BME280;38819;42.692;23.342;2022-12-08T00:50:39;95181.16;;;6.09;73.21
52957;BME280;38819;42.692;23.342;2022-12-08T00:53:04;95174.66;;;5.94;74.19
52957;BME280;38819;42.692;23.342;2022-12-08T00:55:29;95182.19;;;5.98;74.29
52957;BME280;38819;42.692;23.342;2022-12-08T00:57:55;95181.41;;;6.02;74.58
52957;BME280;38819;42.692;23.342;2022-12-08T01:00:20;95168.56;;;6.09;74.56
52957;BME280;38819;42.692;23.342;2022-12-08T01:02:45;95168.28;;;6.11;74.17
52957;BME280;38819;42.692;23.342;2022-12-08T01:05:11;95170.97;;;6.16;74.34
52957;BME280;38819;42.692;23.342;2022-12-08T01:07:36;95167.78;;;6.14;74.13
52957;BME280;38819;42.692;23.342;2022-12-08T01:10:01;95168.31;;;6.21;73.90
52957;BME280;38819;42.692;23.342;2022-12-08T01:12:30;95164.56;;;6.22;73.94
52957;BME280;38819;42.692;23.342;2022-12-08T01:14:55;95172.34;;;6.19;73.85
52957;BME280;38819;42.692;23.342;2022-12-08T01:17:20;95169.41;;;6.20;73.59
52957;BME280;38819;42.692;23.342;2022-12-08T01:19:46;95175.81;;;6.19;73.62
52957;BME280;38819;42.692;23.342;2022-12-08T01:22:11;95171.25;;;6.15;73.75
52957;BME280;38819;42.692;23.342;2022-12-08T01:24:36;95168.28;;;6.06;74.30
52957;BME280;38819;42.692;23.342;2022-12-08T01:27:01;95161.50;;;5.93;75.08
52957;BME280;38819;42.692;23.342;2022-12-08T01:29:27;95162.59;;;5.87;75.63
52957;BME280;38819;42.692;23.342;2022-12-08T01:31:52;95168.22;;;5.85;75.73
52957;BME280;38819;42.692;23.342;2022-12-08T01:34:17;95169.53;;;5.83;75.81
52957;BME280;38819;42.692;23.342;2022-12-08T01:36:43;95159.38;;;5.85;75.81
52957;BME280;38819;42.692;23.342;2022-12-08T01:39:17;95152.91;;;5.81;75.75
52957;BME280;38819;42.692;23.342;2022-12-08T01:41:43;95158.81;;;5.88;75.45
52957;BME280;38819;42.692;23.342;2022-12-08T01:46:41;95165.84;;;5.99;74.80
52957;BME280;38819;42.692;23.342;2022-12-08T01:51:44;95145.25;;;6.05;74.58
52957;BME280;38819;42.692;23.342;2022-12-08T01:54:12;95138.53;;;6.07;74.65
52957;BME280;38819;42.692;23.342;2022-12-08T01:59:03;95140.56;;;5.80;75.72
52957;BME280;38819;42.692;23.342;2022-12-08T02:01:28;95134.41;;;5.79;76.48
52957;BME280;38819;42.692;23.342;2022-12-08T02:03:57;95140.56;;;5.74;76.54
52957;BME280;38819;42.692;23.342;2022-12-08T02:06:23;95138.19;;;5.78;76.21
52957;BME280;38819;42.692;23.342;2022-12-08T02:08:50;95132.00;;;5.88;76.10
52957;BME280;38819;42.692;23.342;2022-12-08T02:11:16;95145.13;;;5.79;76.20
52957;BME280;38819;42.692;23.342;2022-12-08T02:13:42;95143.00;;;5.86;75.97
52957;BME280;38819;42.692;23.342;2022-12-08T02:21:20;95131.22;;;5.82;76.45
52957;BME280;38819;42.692;23.342;2022-12-08T02:34:19;95133.34;;;5.80;74.92
52957;BME280;38819;42.692;23.342;2022-12-08T02:37:07;95127.47;;;5.88;74.52
52957;BME280;38819;42.692;23.342;2022-12-08T02:39:52;95134.22;;;5.96;73.86
52957;BME280;38819;42.692;23.342;2022-12-08T02:44:56;95128.22;;;5.68;74.58
52957;BME280;38819;42.692;23.342;2022-12-08T02:47:25;95122.84;;;5.63;75.31
52957;BME280;38819;42.692;23.342;2022-12-08T02:49:51;95126.34;;;5.64;75.37
52957;BME280;38819;42.692;23.342;2022-12-08T02:54:46;95123.63;;;5.59;75.22
52957;BME280;38819;42.692;23.342;2022-12-08T03:00:02;95118.03;;;5.65;74.80
52957;BME280;38819;42.692;23.342;2022-12-08T03:10:43;95139.97;;;5.57;74.40
52957;BME280;38819;42.692;23.342;2022-12-08T03:13:14;95135.94;;;5.54;74.50
52957;BME280;38819;42.692;23.342;2022-12-08T03:15:41;95118.50;;;5.42;75.13
52957;BME280;38819;42.692;23.342;2022-12-08T03:18:09;95129.50;;;5.45;74.89
52957;BME280;38819;42.692;23.342;2022-12-08T03:20:37;95130.22;;;5.30;75.47
52957;BME280;38819;42.692;23.342;2022-12-08T03:23:04;95127.03;;;5.38;75.29
52957;BME280;38819;42.692;23.342;2022-12-08T03:25:30;95125.16;;;5.34;75.17
52957;BME280;38819;42.692;23.342;2022-12-08T03:27:58;95119.22;;;5.27;75.61
52957;BME280;38819;42.692;23.342;2022-12-08T03:30:23;95128.81;;;5.17;76.00
52957;BME280;38819;42.692;23.342;2022-12-08T03:32:53;95117.63;;;5.31;75.59
52957;BME280;38819;42.692;23.342;2022-12-08T03:35:23;95131.59;;;5.38;75.55
52957;BME280;38819;42.692;23.342;2022-12-08T03:37:50;95130.03;;;5.47;75.61
52957;BME280;38819;42.692;23.342;2022-12-08T03:40:16;95126.81;;;5.45;75.79
52957;BME280;38819;42.692;23.342;2022-12-08T03:42:42;95129.78;;;5.54;75.77
52957;BME280;38819;42.692;23.342;2022-12-08T03:45:07;95134.88;;;5.55;75.91
52957;BME280;38819;42.692;23.342;2022-12-08T03:47:33;95140.50;;;5.54;75.43
52957;BME280;38819;42.692;23.342;2022-12-08T03:49:58;95137.81;;;5.54;75.07
52957;BME280;38819;42.692;23.342;2022-12-08T03:52:23;95131.59;;;5.38;75.52
52957;BME280;38819;42.692;23.342;2022-12-08T03:54:49;95130.00;;;5.37;75.59
52957;BME280;38819;42.692;23.342;2022-12-08T03:57:14;95138.78;;;5.32;75.74
52957;BME280;38819;42.692;23.342;2022-12-08T03:59:39;95135.94;;;5.54;75.18
52957;BME280;38819;42.692;23.342;2022-12-08T04:02:04;95140.16;;;5.35;75.71
52957;BME280;38819;42.692;23.342;2022-12-08T04:04:30;95141.00;;;5.46;75.64
52957;BME280;38819;42.692;23.342;2022-12-08T04:06:55;95140.72;;;5.42;75.52
52957;BME280;38819;42.692;23.342;2022-12-08T04:09:20;95142.59;;;5.42;75.38
52957;BME280;38819;42.692;23.342;2022-12-08T04:11:46;95133.41;;;5.22;76.61
52957;BME280;38819;42.692;23.342;2022-12-08T04:14:11;95143.31;;;5.22;76.62
52957;BME280;38819;42.692;23.342;2022-12-08T04:16:36;95152.91;;;5.17;76.21
52957;BME280;38819;42.692;23.342;2022-12-08T04:19:02;95152.16;;;5.27;75.78
52957;BME280;38819;42.692;23.342;2022-12-08T04:21:27;95145.22;;;5.26;75.87
52957;BME280;38819;42.692;23.342;2022-12-08T04:23:52;95143.88;;;5.29;75.81
52957;BME280;38819;42.692;23.342;2022-12-08T04:26:17;95145.22;;;5.26;76.42
52957;BME280;38819;42.692;23.342;2022-12-08T04:28:43;95147.69;;;5.38;75.90
52957;BME280;38819;42.692;23.342;2022-12-08T04:31:08;95155.38;;;5.29;75.91
52957;BME280;38819;42.692;23.342;2022-12-08T04:33:33;95148.97;;;5.30;76.33
52957;BME280;38819;42.692;23.342;2022-12-08T04:35:59;95148.47;;;5.33;76.45
52957;BME280;38819;42.692;23.342;2022-12-08T04:38:25;95156.75;;;5.32;76.65
52957;BME280;38819;42.692;23.342;2022-12-08T04:40:50;95150.03;;;5.34;76.64
52957;BME280;38819;42.692;23.342;2022-12-08T04:43:16;95147.38;;;5.34;76.49
52957;BME280;38819;42.692;23.342;2022-12-08T04:45:41;95153.25;;;5.26;76.67
52957;BME280;38819;42.692;23.342;2022-12-08T04:48:07;95163.19;;;5.36;76.53
52957;BME280;38819;42.692;23.342;2022-12-08T04:50:33;95152.19;;;5.32;76.72
52957;BME280;38819;42.692;23.342;2022-12-08T04:52:58;95154.84;;;5.27;76.93
52957;BME280;38819;42.692;23.342;2022-12-08T04:55:23;95150.28;;;5.28;77.19
52957;BME280;38819;42.692;23.342;2022-12-08T04:57:48;95162.91;;;5.37;76.76
52957;BME280;38819;42.692;23.342;2022-12-08T05:00:14;95159.69;;;5.30;76.72
52957;BME280;38819;42.692;23.342;2022-12-08T05:02:39;95155.94;;;5.31;76.76
52957;BME280;38819;42.692;23.342;2022-12-08T05:05:05;95156.22;;;5.30;76.62
52957;BME280;38819;42.692;23.342;2022-12-08T05:07:30;95161.59;;;5.35;76.29
52957;BME280;38819;42.692;23.342;2022-12-08T05:09:56;95172.00;;;5.31;76.56
52957;BME280;38819;42.692;23.342;2022-12-08T05:12:21;95163.09;;;5.20;76.91
52957;BME280;38819;42.692;23.342;2022-12-08T05:14:47;95171.16;;;5.26;76.79
52957;BME280;38819;42.692;23.342;2022-12-08T05:17:13;95169.09;;;5.38;76.60
52957;BME280;38819;42.692;23.342;2022-12-08T05:19:38;95180.63;;;5.44;76.12
52957;BME280;38819;42.692;23.342;2022-12-08T05:22:03;95183.53;;;5.32;75.81
52957;BME280;38819;42.692;23.342;2022-12-08T05:24:29;95180.94;;;4.99;76.61
52957;BME280;38819;42.692;23.342;2022-12-08T05:26:54;95175.16;;;4.80;77.56
52957;BME280;38819;42.692;23.342;2022-12-08T05:29:19;95185.38;;;4.83;77.03
52957;BME280;38819;42.692;23.342;2022-12-08T05:31:44;95185.59;;;4.77;77.68
52957;BME280;38819;42.692;23.342;2022-12-08T05:34:10;95192.56;;;4.78;78.17
52957;BME280;38819;42.692;23.342;2022-12-08T05:36:35;95189.28;;;4.71;78.20
52957;BME280;38819;42.692;23.342;2022-12-08T05:39:00;95187.44;;;4.71;78.50
52957;BME280;38819;42.692;23.342;2022-12-08T05:41:26;95190.13;;;4.76;77.96
52957;BME280;38819;42.692;23.342;2022-12-08T05:43:51;95185.59;;;4.77;78.25
52957;BME280;38819;42.692;23.342;2022-12-08T05:46:16;95186.94;;;4.79;78.08
52957;BME280;38819;42.692;23.342;2022-12-08T05:48:42;95186.72;;;4.86;77.65
52957;BME280;38819;42.692;23.342;2022-12-08T05:51:12;95187.91;;;5.06;77.18
52957;BME280;38819;42.692;23.342;2022-12-08T05:53:40;95192.28;;;5.17;76.73
52957;BME280;38819;42.692;23.342;2022-12-08T05:56:05;95192.59;;;5.26;76.34
52957;BME280;38819;42.692;23.342;2022-12-08T05:58:30;95197.16;;;5.30;76.27
52957;BME280;38819;42.692;23.342;2022-12-08T06:00:56;95187.81;;;5.33;76.13
52957;BME280;38819;42.692;23.342;2022-12-08T06:03:21;95199.66;;;5.42;75.71
52957;BME280;38819;42.692;23.342;2022-12-08T06:05:46;95195.59;;;5.39;75.77
52957;BME280;38819;42.692;23.342;2022-12-08T06:08:12;95202.09;;;5.49;75.65
52957;BME280;38819;42.692;23.342;2022-12-08T06:10:38;95206.94;;;5.57;75.57
52957;BME280;38819;42.692;23.342;2022-12-08T06:13:03;95205.31;;;5.56;75.78
52957;BME280;38819;42.692;23.342;2022-12-08T06:15:29;95209.91;;;5.55;76.08
52957;BME280;38819;42.692;23.342;2022-12-08T06:17:54;95213.09;;;5.57;76.05
52957;BME280;38819;42.692;23.342;2022-12-08T06:20:19;95210.16;;;5.54;76.30
52957;BME280;38819;42.692;23.342;2022-12-08T06:22:44;95215.53;;;5.59;76.20
52957;BME280;38819;42.692;23.342;2022-12-08T06:25:10;95221.69;;;5.60;76.42
52957;BME280;38819;42.692;23.342;2022-12-08T06:27:35;95211.22;;;5.53;75.95
52957;BME280;38819;42.692;23.342;2022-12-08T06:30:00;95220.09;;;5.59;76.36
52957;BME280;38819;42.692;23.342;2022-12-08T06:32:26;95225.13;;;5.45;76.94
52957;BME280;38819;42.692;23.342;2022-12-08T06:34:51;95214.19;;;5.56;76.72
52957;BME280;38819;42.692;23.342;2022-12-08T06:37:17;95220.38;;;5.62;76.16
52957;BME280;38819;42.692;23.342;2022-12-08T06:39:42;95226.00;;;5.66;76.38
52957;BME280;38819;42.692;23.342;2022-12-08T06:42:07;95210.44;;;5.57;76.93
52957;BME280;38819;42.692;23.342;2022-12-08T06:44:51;95204.03;;;5.64;76.65
52957;BME280;38819;42.692;23.342;2022-12-08T06:47:16;95206.47;;;5.65;76.73
52957;BME280;38819;42.692;23.342;2022-12-08T06:49:41;95210.81;;;5.77;76.61
52957;BME280;38819;42.692;23.342;2022-12-08T06:52:07;95202.50;;;5.78;76.58
52957;BME280;38819;42.692;23.342;2022-12-08T06:54:32;95201.72;;;5.88;76.73
52957;BME280;38819;42.692;23.342;2022-12-08T06:56:57;95203.59;;;5.87;77.20
52957;BME280;38819;42.692;23.342;2022-12-08T06:59:23;95202.56;;;5.93;76.87
52957;BME280;38819;42.692;23.342;2022-12-08T07:01:50;95204.22;;;6.05;76.23
52957;BME280;38819;42.692;23.342;2022-12-08T07:04:15;95207.72;;;6.16;76.13
52957;BME280;38819;42.692;23.342;2022-12-08T07:06:40;95225.47;;;6.27;75.93
52957;BME280;38819;42.692;23.342;2022-12-08T07:09:06;95221.44;;;6.24;75.86
52957;BME280;38819;42.692;23.342;2022-12-08T07:11:31;95223.59;;;6.27;75.99
52957;BME280;38819;42.692;23.342;2022-12-08T07:13:56;95221.69;;;6.28;75.91
52957;BME280;38819;42.692;23.342;2022-12-08T07:16:22;95236.44;;;6.20;76.66
52957;BME280;38819;42.692;23.342;2022-12-08T07:18:47;95233.44;;;6.06;76.63
52957;BME280;38819;42.692;23.342;2022-12-08T07:21:13;95237.75;;;6.12;77.34
52957;BME280;38819;42.692;23.342;2022-12-08T07:23:42;95236.69;;;6.08;77.20
52957;BME280;38819;42.692;23.342;2022-12-08T07:26:09;95245.69;;;5.92;78.36
52957;BME280;38819;42.692;23.342;2022-12-08T07:28:36;95244.97;;;6.02;77.81
52957;BME280;38819;42.692;23.342;2022-12-08T07:31:01;95243.59;;;5.99;77.78
52957;BME280;38819;42.692;23.342;2022-12-08T07:33:27;95247.81;;;5.85;78.50
52957;BME280;38819;42.692;23.342;2022-12-08T07:35:56;95257.53;;;5.96;78.45
52957;BME280;38819;42.692;23.342;2022-12-08T07:38:22;95260.22;;;5.96;78.11
52957;BME280;38819;42.692;23.342;2022-12-08T07:40:47;95252.44;;;6.00;78.23
52957;BME280;38819;42.692;23.342;2022-12-08T07:43:12;95251.16;;;6.07;78.07
52957;BME280;38819;42.692;23.342;2022-12-08T07:45:39;95249.25;;;6.08;77.99
52957;BME280;38819;42.692;23.342;2022-12-08T07:48:04;95245.56;;;6.24;77.50
52957;BME280;38819;42.692;23.342;2022-12-08T07:50:30;95254.72;;;6.39;76.98
52957;BME280;38819;42.692;23.342;2022-12-08T07:52:55;95248.56;;;6.38;77.02
52957;BME280;38819;42.692;23.342;2022-12-08T07:55:20;95251.78;;;6.45;76.70
52957;BME280;38819;42.692;23.342;2022-12-08T07:57:45;95246.97;;;6.42;76.79
52957;BME280;38819;42.692;23.342;2022-12-08T08:00:11;95246.69;;;6.49;76.56
52957;BME280;38819;42.692;23.342;2022-12-08T08:02:36;95243.50;;;6.62;76.01
52957;BME280;38819;42.692;23.342;2022-12-08T08:05:01;95233.28;;;6.54;76.28
52957;BME280;38819;42.692;23.342;2022-12-08T08:07:29;95233.56;;;6.58;76.36
52957;BME280;38819;42.692;23.342;2022-12-08T08:09:54;95241.34;;;6.59;76.23
52957;BME280;38819;42.692;23.342;2022-12-08T08:12:19;95242.72;;;6.72;76.09
52957;BME280;38819;42.692;23.342;2022-12-08T08:14:44;95240.28;;;6.81;75.93
52957;BME280;38819;42.692;23.342;2022-12-08T08:17:10;95242.97;;;6.86;76.01
52957;BME280;38819;42.692;23.342;2022-12-08T08:19:35;95241.13;;;6.92;75.77
52957;BME280;38819;42.692;23.342;2022-12-08T08:22:00;95244.59;;;6.97;75.85
52957;BME280;38819;42.692;23.342;2022-12-08T08:24:26;95243.81;;;7.07;75.56
52957;BME280;38819;42.692;23.342;2022-12-08T08:26:51;95250.75;;;7.03;75.47
52957;BME280;38819;42.692;23.342;2022-12-08T08:29:17;95249.44;;;7.16;75.58
52957;BME280;38819;42.692;23.342;2022-12-08T08:31:42;95260.97;;;7.27;75.25
52957;BME280;38819;42.692;23.342;2022-12-08T08:34:08;95247.25;;;7.33;75.17
52957;BME280;38819;42.692;23.342;2022-12-08T08:36:33;95241.59;;;7.35;74.82
52957;BME280;38819;42.692;23.342;2022-12-08T08:38:58;95240.28;;;7.32;75.00
52957;BME280;38819;42.692;23.342;2022-12-08T08:41:24;95233.81;;;7.33;75.27
52957;BME280;38819;42.692;23.342;2022-12-08T08:43:49;95249.13;;;7.38;74.49
52957;BME280;38819;42.692;23.342;2022-12-08T08:46:14;95239.47;;;7.27;74.29
52957;BME280;38819;42.692;23.342;2022-12-08T08:48:39;95246.19;;;7.29;74.97
52957;BME280;38819;42.692;23.342;2022-12-08T08:51:06;95239.47;;;7.27;74.50
52957;BME280;38819;42.692;23.342;2022-12-08T08:53:31;95244.03;;;7.36;74.31
52957;BME280;38819;42.692;23.342;2022-12-08T08:55:57;95238.13;;;7.34;73.90
52957;BME280;38819;42.692;23.342;2022-12-08T08:58:23;95232.22;;;7.32;74.16
52957;BME280;38819;42.692;23.342;2022-12-08T09:00:48;95233.53;;;7.40;73.88
52957;BME280;38819;42.692;23.342;2022-12-08T09:03:14;95232.44;;;7.51;73.91
52957;BME280;38819;42.692;23.342;2022-12-08T09:05:39;95223.81;;;7.59;73.30
52957;BME280;38819;42.692;23.342;2022-12-08T09:08:05;95221.34;;;7.73;73.37
52957;BME280;38819;42.692;23.342;2022-12-08T09:10:30;95233.72;;;7.79;73.03
52957;BME280;38819;42.692;23.342;2022-12-08T09:12:56;95219.25;;;7.70;73.35
52957;BME280;38819;42.692;23.342;2022-12-08T09:15:21;95207.91;;;7.84;72.98
52957;BME280;38819;42.692;23.342;2022-12-08T09:17:46;95208.34;;;8.01;72.82
52957;BME280;38819;42.692;23.342;2022-12-08T09:20:11;95200.47;;;8.15;72.40
52957;BME280;38819;42.692;23.342;2022-12-08T09:22:37;95199.88;;;8.28;72.11
52957;BME280;38819;42.692;23.342;2022-12-08T09:25:02;95194.97;;;8.41;71.73
52957;BME280;38819;42.692;23.342;2022-12-08T09:27:28;95199.25;;;8.47;71.40
52957;BME280;38819;42.692;23.342;2022-12-08T09:29:53;95207.56;;;8.56;71.07
52957;BME280;38819;42.692;23.342;2022-12-08T09:32:18;95206.50;;;8.51;70.67
52957;BME280;38819;42.692;23.342;2022-12-08T09:34:43;95210.75;;;8.58;70.67
52957;BME280;38819;42.692;23.342;2022-12-08T09:37:09;95205.69;;;8.51;70.53
52957;BME280;38819;42.692;23.342;2022-12-08T09:39:34;95189.31;;;8.42;71.46
52957;BME280;38819;42.692;23.342;2022-12-08T09:42:00;95193.50;;;8.14;71.98
52957;BME280;38819;42.692;23.342;2022-12-08T09:47:02;95202.66;;;8.08;72.42
52957;BME280;38819;42.692;23.342;2022-12-08T09:49:40;95207.78;;;8.09;72.42
52957;BME280;38819;42.692;23.342;2022-12-08T09:52:10;95194.09;;;8.06;72.64
52957;BME280;38819;42.692;23.342;2022-12-08T09:54:40;95180.94;;;7.99;72.90
52957;BME280;38819;42.692;23.342;2022-12-08T09:57:06;95181.75;;;7.94;73.02
52957;BME280;38819;42.692;23.342;2022-12-08T09:59:37;95182.56;;;7.95;73.02
52957;BME280;38819;42.692;23.342;2022-12-08T10:02:05;95166.47;;;7.85;73.46
52957;BME280;38819;42.692;23.342;2022-12-08T10:04:37;95166.47;;;7.85;73.76
52957;BME280;38819;42.692;23.342;2022-12-08T10:07:05;95163.22;;;7.93;73.74
52957;BME280;38819;42.692;23.342;2022-12-08T10:14:43;95152.88;;;8.15;73.28
52957;BME280;38819;42.692;23.342;2022-12-08T10:19:35;95135.00;;;8.30;72.85
52957;BME280;38819;42.692;23.342;2022-12-08T10:22:00;95139.19;;;8.51;72.29
52957;BME280;38819;42.692;23.342;2022-12-08T10:24:38;95150.38;;;8.69;71.83
52957;BME280;38819;42.692;23.342;2022-12-08T10:27:11;95149.50;;;8.74;71.28
52957;BME280;38819;42.692;23.342;2022-12-08T10:29:38;95151.03;;;8.85;70.95
52957;BME280;38819;42.692;23.342;2022-12-08T10:32:08;95129.88;;;8.73;71.01
52957;BME280;38819;42.692;23.342;2022-12-08T10:34:55;95127.97;;;8.74;70.86
52957;BME280;38819;42.692;23.342;2022-12-08T10:37:22;95131.72;;;8.78;70.75
52957;BME280;38819;42.692;23.342;2022-12-08T10:39:47;95133.97;;;8.95;70.33
52957;BME280;38819;42.692;23.342;2022-12-08T10:42:22;95135.22;;;9.07;70.09
52957;BME280;38819;42.692;23.342;2022-12-08T10:47:20;95120.59;;;9.14;69.87
52957;BME280;38819;42.692;23.342;2022-12-08T10:49:45;95114.28;;;9.23;69.45
52957;BME280;38819;42.692;23.342;2022-12-08T10:52:28;95116.69;;;9.25;69.27
52957;BME280;38819;42.692;23.342;2022-12-08T10:54:54;95116.25;;;9.42;68.91
52957;BME280;38819;42.692;23.342;2022-12-08T10:57:24;95110.78;;;9.47;68.75
52957;BME280;38819;42.692;23.342;2022-12-08T10:59:49;95111.03;;;9.51;68.73
52957;BME280;38819;42.692;23.342;2022-12-08T11:02:18;95115.19;;;9.62;68.28
52957;BME280;38819;42.692;23.342;2022-12-08T11:04:44;95104.94;;;9.64;68.09
52957;BME280;38819;42.692;23.342;2022-12-08T11:07:10;95100.78;;;9.72;67.92
52957;BME280;38819;42.692;23.342;2022-12-08T11:09:42;95096.38;;;9.81;67.79
52957;BME280;38819;42.692;23.342;2022-12-08T11:12:16;95099.22;;;9.90;67.62
52957;BME280;38819;42.692;23.342;2022-12-08T11:17:23;95089.59;;;10.02;67.21
52957;BME280;38819;42.692;23.342;2022-12-08T11:20:00;95079.53;;;10.08;67.14
52957;BME280;38819;42.692;23.342;2022-12-08T11:22:29;95075.53;;;10.06;67.25
52957;BME280;38819;42.692;23.342;2022-12-08T11:27:28;95071.00;;;10.01;67.06
52957;BME280;38819;42.692;23.342;2022-12-08T11:29:53;95060.78;;;9.98;67.17
52957;BME280;38819;42.692;23.342;2022-12-08T11:32:18;95056.41;;;10.02;67.15
52957;BME280;38819;42.692;23.342;2022-12-08T11:37:12;95046.97;;;10.18;66.72
52957;BME280;38819;42.692;23.342;2022-12-08T11:39:43;95054.31;;;9.99;67.17
52957;BME280;38819;42.692;23.342;2022-12-08T11:42:10;95052.03;;;9.87;67.71
52957;BME280;38819;42.692;23.342;2022-12-08T11:44:39;95063.41;;;10.03;67.46
52957;BME280;38819;42.692;23.342;2022-12-08T11:47:20;95060.25;;;10.15;67.30
52957;BME280;38819;42.692;23.342;2022-12-08T11:49:47;95055.00;;;10.24;67.41
52957;BME280;38819;42.692;23.342;2022-12-08T11:52:28;95044.94;;;10.29;67.36
52957;BME280;38819;42.692;23.342;2022-12-08T11:54:57;95042.88;;;10.40;67.13
52957;BME280;38819;42.692;23.342;2022-12-08T11:57:24;95049.81;;;10.46;66.71
52957;BME280;38819;42.692;23.342;2022-12-08T11:59:50;95041.41;;;10.48;66.56
52957;BME280;38819;42.692;23.342;2022-12-08T12:02:20;95039.94;;;10.55;66.52
52957;BME280;38819;42.692;23.342;2022-12-08T12:04:48;95040.38;;;10.63;66.50
52957;BME280;38819;42.692;23.342;2022-12-08T12:12:30;95038.28;;;10.73;65.91
52957;BME280;38819;42.692;23.342;2022-12-08T12:17:54;95035.69;;;10.82;65.64
52957;BME280;38819;42.692;23.342;2022-12-08T12:20:26;95029.38;;;10.87;65.40
52957;BME280;38819;42.692;23.342;2022-12-08T12:22:58;95031.78;;;10.88;65.46
52957;BME280;38819;42.692;23.342;2022-12-08T12:25:25;95027.38;;;10.92;65.43
52957;BME280;38819;42.692;23.342;2022-12-08T12:27:51;95028.69;;;10.95;65.37
52957;BME280;38819;42.692;23.342;2022-12-08T12:30:24;95028.69;;;10.95;65.45
52957;BME280;38819;42.692;23.342;2022-12-08T12:32:51;95024.09;;;10.96;65.51
52957;BME280;38819;42.692;23.342;2022-12-08T12:35:20;95021.28;;;11.01;65.44
52957;BME280;38819;42.692;23.342;2022-12-08T12:37:47;95021.19;;;11.06;65.16
52957;BME280;38819;42.692;23.342;2022-12-08T12:40:17;95010.06;;;11.07;65.26
52957;BME280;38819;42.692;23.342;2022-12-08T12:42:45;95018.91;;;11.13;65.21
52957;BME280;38819;42.692;23.342;2022-12-08T12:47:45;95023.59;;;11.07;65.35
52957;BME280;38819;42.692;23.342;2022-12-08T12:50:11;95023.97;;;11.01;65.45
52957;BME280;38819;42.692;23.342;2022-12-08T12:52:37;95021.56;;;10.99;65.28
52957;BME280;38819;42.692;23.342;2022-12-08T12:57:35;95014.09;;;11.10;65.05
52957;BME280;38819;42.692;23.342;2022-12-08T13:02:26;95006.28;;;11.08;65.08
52957;BME280;38819;42.692;23.342;2022-12-08T13:04:57;94998.69;;;10.97;65.27
52957;BME280;38819;42.692;23.342;2022-12-08T13:07:30;94989.66;;;10.87;65.88
52957;BME280;38819;42.692;23.342;2022-12-08T13:10:02;94984.63;;;10.81;66.60
52957;BME280;38819;42.692;23.342;2022-12-08T13:12:34;94987.63;;;10.79;66.60
52957;BME280;38819;42.692;23.342;2022-12-08T13:15:01;94992.34;;;10.73;66.31
52957;BME280;38819;42.692;23.342;2022-12-08T13:17:28;94995.28;;;10.91;66.28
52957;BME280;38819;42.692;23.342;2022-12-08T13:19:55;94995.47;;;10.94;66.24
52957;BME280;38819;42.692;23.342;2022-12-08T13:27:54;94992.38;;;11.01;66.26
52957;BME280;38819;42.692;23.342;2022-12-08T13:33:03;94999.97;;;11.13;65.98
52957;BME280;38819;42.692;23.342;2022-12-08T13:35:29;94992.38;;;11.15;66.06
52957;BME280;38819;42.692;23.342;2022-12-08T13:37:55;95002.28;;;11.20;65.91
52957;BME280;38819;42.692;23.342;2022-12-08T13:40:24;94997.78;;;11.15;65.93
52957;BME280;38819;42.692;23.342;2022-12-08T13:42:56;94991.75;;;11.18;66.00
52957;BME280;38819;42.692;23.342;2022-12-08T13:45:26;94991.75;;;11.18;65.88
52957;BME280;38819;42.692;23.342;2022-12-08T13:50:24;94984.88;;;10.98;66.56
52957;BME280;38819;42.692;23.342;2022-12-08T13:52:55;94990.56;;;10.97;66.69
52957;BME280;38819;42.692;23.342;2022-12-08T13:55:25;94989.78;;;10.96;66.62
52957;BME280;38819;42.692;23.342;2022-12-08T13:57:53;94997.47;;;11.03;66.46
52957;BME280;38819;42.692;23.342;2022-12-08T14:00:19;94999.25;;;11.07;66.37
52957;BME280;38819;42.692;23.342;2022-12-08T14:02:46;94997.88;;;11.10;66.43
52957;BME280;38819;42.692;23.342;2022-12-08T14:05:12;94998.19;;;10.94;67.49
52957;BME280;38819;42.692;23.342;2022-12-08T14:07:39;95000.25;;;10.84;67.12
52957;BME280;38819;42.692;23.342;2022-12-08T14:10:47;95013.88;;;10.92;66.96
52957;BME280;38819;42.692;23.342;2022-12-08T14:12:55;95017.28;;;10.98;66.69
52957;BME280;38819;42.692;23.342;2022-12-08T14:15:21;95005.06;;;11.01;66.76
52957;BME280;38819;42.692;23.342;2022-12-08T14:17:54;95001.88;;;10.99;66.97
52957;BME280;38819;42.692;23.342;2022-12-08T14:20:23;95003.28;;;10.96;67.05
52957;BME280;38819;42.692;23.342;2022-12-08T14:22:50;95001.56;;;10.86;67.20